createdAt,value
2022-08-26T00:01:56.924Z,76.80
2022-08-26T00:04:26.079Z,76.05
2022-08-26T00:06:55.875Z,75.64
2022-08-26T00:09:25.201Z,74.71
2022-08-26T00:11:53.975Z,74.71
2022-08-26T00:14:24.209Z,74.56
2022-08-26T00:16:55.619Z,75.23
2022-08-26T00:19:23.005Z,75.27
2022-08-26T00:21:50.439Z,75.33
2022-08-26T00:24:20.871Z,75.21
2022-08-26T00:26:49.633Z,75.47
2022-08-26T00:29:17.631Z,75.44
2022-08-26T00:31:45.004Z,75.58
2022-08-26T00:34:13.142Z,75.85
2022-08-26T00:36:41.055Z,74.99
2022-08-26T00:39:08.757Z,74.64
2022-08-26T00:41:39.833Z,75.01
2022-08-26T00:44:10.355Z,75.49
2022-08-26T00:46:47.177Z,76.78
2022-08-26T00:49:38.539Z,77.03
2022-08-26T00:52:13.155Z,77.61
2022-08-26T00:54:55.630Z,77.54
2022-08-26T00:57:23.813Z,77.75
2022-08-26T00:59:57.031Z,77.84
2022-08-26T01:02:24.681Z,78.72
2022-08-26T01:04:56.529Z,78.68
2022-08-26T01:07:26.384Z,79.29
2022-08-26T01:09:55.563Z,79.13
2022-08-26T01:12:24.370Z,79.17
2022-08-26T01:14:52.513Z,78.87
2022-08-26T01:17:19.638Z,79.04
2022-08-26T01:19:57.996Z,80.02
2022-08-26T01:22:40.838Z,80.17
2022-08-26T01:25:08.743Z,79.78
2022-08-26T01:27:36.062Z,79.20
2022-08-26T01:30:05.990Z,78.86
2022-08-26T01:32:34.108Z,79.67
2022-08-26T01:35:02.163Z,79.26
2022-08-26T01:37:36.266Z,79.61
2022-08-26T01:40:08.556Z,79.56
2022-08-26T01:42:35.729Z,80.03
2022-08-26T01:45:14.763Z,81.70
2022-08-26T01:47:43.087Z,81.59
2022-08-26T01:50:18.034Z,81.51
2022-08-26T01:52:58.119Z,80.89
2022-08-26T01:55:32.033Z,80.13
2022-08-26T01:58:02.932Z,80.13
2022-08-26T02:00:30.053Z,79.97
2022-08-26T02:03:17.235Z,80.05
2022-08-26T02:05:57.619Z,80.56
2022-08-26T02:08:54.636Z,80.50
2022-08-26T02:11:21.748Z,80.15
2022-08-26T02:13:59.816Z,80.92
2022-08-26T02:16:31.285Z,81.00
2022-08-26T02:19:00.607Z,81.66
2022-08-26T02:21:28.971Z,81.81
2022-08-26T02:24:17.482Z,81.38
2022-08-26T02:26:46.060Z,81.91
2022-08-26T02:29:36.198Z,82.12
2022-08-26T02:32:09.571Z,83.45
2022-08-26T02:34:37.452Z,83.58
2022-08-26T02:37:09.345Z,83.81
2022-08-26T02:39:41.744Z,83.15
2022-08-26T02:42:09.155Z,83.29
2022-08-26T02:44:36.814Z,83.94
2022-08-26T02:47:04.703Z,83.01
2022-08-26T02:49:32.341Z,82.93
2022-08-26T02:52:01.905Z,82.79
2022-08-26T02:54:29.271Z,83.02
2022-08-26T02:56:56.342Z,83.29
2022-08-26T02:59:24.685Z,83.15
2022-08-26T03:01:52.498Z,82.93
2022-08-26T03:04:25.873Z,84.46
2022-08-26T03:06:53.882Z,84.13
2022-08-26T03:09:24.065Z,83.75
2022-08-26T03:11:52.420Z,82.98
2022-08-26T03:14:19.519Z,82.73
2022-08-26T03:16:48.350Z,83.62
2022-08-26T03:19:15.600Z,82.91
2022-08-26T03:21:47.305Z,83.49
2022-08-26T03:24:15.602Z,83.89
2022-08-26T03:26:51.992Z,84.00
2022-08-26T03:29:40.623Z,84.77
2022-08-26T03:32:08.863Z,85.80
2022-08-26T03:34:36.494Z,86.63
2022-08-26T03:37:03.886Z,88.92
2022-08-26T03:39:31.757Z,90.80
2022-08-26T03:41:59.973Z,89.80
2022-08-26T03:44:27.260Z,88.56
2022-08-26T03:46:54.679Z,88.09
2022-08-26T03:49:23.138Z,87.36
2022-08-26T03:51:50.247Z,86.53
2022-08-26T03:54:17.937Z,85.97
2022-08-26T03:56:46.629Z,85.18
2022-08-26T03:59:13.893Z,86.04
2022-08-26T04:01:41.332Z,86.99
2022-08-26T04:04:08.378Z,87.51
2022-08-26T04:06:39.469Z,88.33
2022-08-26T04:09:15.680Z,88.68
2022-08-26T04:11:45.047Z,88.20
2022-08-26T04:14:20.102Z,88.23
2022-08-26T04:16:47.858Z,88.15
2022-08-26T04:19:16.719Z,87.43
2022-08-26T04:21:45.622Z,87.15
2022-08-26T04:24:15.644Z,87.39
2022-08-26T04:26:43.894Z,88.07
2022-08-26T04:29:23.976Z,88.30
2022-08-26T04:31:55.310Z,88.92
2022-08-26T04:34:28.980Z,88.67
2022-08-26T04:36:57.812Z,88.56
2022-08-26T04:39:25.302Z,87.64
2022-08-26T04:41:54.996Z,87.75
2022-08-26T04:44:25.535Z,88.09
2022-08-26T04:46:53.733Z,87.58
2022-08-26T04:49:22.731Z,86.30
2022-08-26T04:51:49.821Z,84.43
2022-08-26T04:54:18.331Z,84.17
2022-08-26T04:56:49.413Z,85.29
2022-08-26T04:59:17.991Z,86.39
2022-08-26T05:01:49.606Z,86.69
2022-08-26T05:04:19.425Z,86.82
2022-08-26T05:06:49.540Z,86.56
2022-08-26T05:09:18.455Z,87.49
2022-08-26T05:11:48.489Z,87.06
2022-08-26T05:14:23.243Z,86.58
2022-08-26T05:16:51.562Z,85.42
2022-08-26T05:19:19.252Z,84.38
2022-08-26T05:21:48.386Z,82.62
2022-08-26T05:24:16.579Z,83.87
2022-08-26T05:26:44.816Z,84.56
2022-08-26T05:29:12.991Z,85.23
2022-08-26T05:31:40.465Z,87.15
2022-08-26T05:34:10.739Z,87.06
2022-08-26T05:36:39.194Z,85.63
2022-08-26T05:39:07.451Z,85.23
2022-08-26T05:41:38.635Z,84.92
2022-08-26T05:44:12.793Z,84.63
2022-08-26T05:46:42.490Z,84.31
2022-08-26T05:49:13.041Z,82.88
2022-08-26T05:51:44.960Z,82.94
2022-08-26T05:54:21.265Z,83.40
2022-08-26T05:56:51.301Z,83.10
2022-08-26T05:59:21.272Z,82.72
2022-08-26T06:01:54.635Z,82.56
2022-08-26T06:04:23.297Z,81.10
2022-08-26T06:06:54.040Z,79.65
2022-08-26T06:09:21.292Z,79.83
2022-08-26T06:11:48.547Z,79.38
2022-08-26T06:14:15.811Z,78.89
2022-08-26T06:16:46.570Z,79.32
2022-08-26T06:19:15.530Z,79.08
2022-08-26T06:21:54.157Z,79.31
2022-08-26T06:24:41.317Z,79.42
2022-08-26T06:27:13.424Z,79.51
2022-08-26T06:29:40.407Z,78.78
2022-08-26T06:32:08.678Z,79.98
2022-08-26T06:34:35.866Z,81.09
2022-08-26T06:37:03.320Z,81.27
2022-08-26T06:39:31.929Z,79.12
2022-08-26T06:42:03.146Z,79.46
2022-08-26T06:44:33.166Z,78.13
2022-08-26T06:47:00.271Z,76.63
2022-08-26T06:49:27.811Z,75.88
2022-08-26T06:52:00.910Z,76.98
2022-08-26T06:54:31.547Z,76.84
2022-08-26T06:57:01.123Z,77.65
2022-08-26T06:59:28.348Z,75.75
2022-08-26T07:01:55.567Z,74.04
2022-08-26T07:04:24.547Z,73.50
2022-08-26T07:06:53.725Z,71.65
2022-08-26T07:09:28.073Z,70.35
2022-08-26T07:11:58.713Z,70.18
2022-08-26T07:14:26.182Z,69.67
2022-08-26T07:16:54.524Z,68.33
2022-08-26T07:19:30.087Z,67.54
2022-08-26T07:22:05.538Z,69.27
2022-08-26T07:24:35.840Z,68.83
2022-08-26T07:27:08.641Z,67.93
2022-08-26T07:29:37.936Z,67.44
2022-08-26T07:32:05.615Z,64.92
2022-08-26T07:34:33.497Z,66.75
2022-08-26T07:37:01.240Z,65.63
2022-08-26T07:39:31.544Z,65.03
2022-08-26T07:42:01.768Z,66.38
2022-08-26T07:44:36.124Z,66.51
2022-08-26T07:47:03.216Z,66.92
2022-08-26T07:49:38.296Z,67.36
2022-08-26T07:52:06.520Z,67.46
2022-08-26T07:54:33.710Z,65.97
2022-08-26T07:57:01.534Z,63.98
2022-08-26T07:59:34.039Z,64.49
2022-08-26T08:02:01.436Z,63.30
2022-08-26T08:04:28.552Z,63.14
2022-08-26T08:06:56.000Z,62.83
2022-08-26T08:09:23.909Z,64.21
2022-08-26T08:11:53.051Z,62.56
2022-08-26T08:14:22.128Z,64.14
2022-08-26T08:16:51.105Z,63.36
2022-08-26T08:19:23.780Z,65.40
2022-08-26T08:21:50.997Z,63.38
2022-08-26T08:24:18.491Z,62.58
2022-08-26T08:26:46.458Z,62.09
2022-08-26T08:29:14.023Z,61.33
2022-08-26T08:31:58.233Z,62.70
2022-08-26T08:34:28.654Z,60.13
2022-08-26T08:36:57.257Z,60.26
2022-08-26T08:39:26.313Z,59.42
2022-08-26T08:45:39.533Z,58.88
2022-08-26T08:48:27.339Z,58.30
2022-08-26T08:51:22.342Z,59.63
2022-08-26T08:53:54.599Z,60.65
2022-08-26T08:56:38.232Z,59.64
2022-08-26T08:59:25.266Z,60.53
2022-08-26T09:01:53.979Z,61.50
2022-08-26T09:04:36.066Z,60.65
2022-08-26T09:07:07.212Z,61.42
2022-08-26T09:09:42.144Z,59.04
2022-08-26T09:12:20.631Z,58.72
2022-08-26T09:15:17.365Z,57.41
2022-08-26T09:18:16.625Z,58.00
2022-08-26T09:21:04.558Z,57.74
2022-08-26T09:23:36.326Z,57.75
2022-08-26T09:26:31.049Z,57.31
2022-08-26T09:29:08.785Z,58.16
2022-08-26T09:31:39.157Z,58.64
2022-08-26T09:34:27.143Z,57.43
2022-08-26T09:36:59.618Z,58.82
2022-08-26T09:39:37.486Z,57.24
2022-08-26T09:42:22.314Z,56.63
2022-08-26T09:45:06.533Z,55.53
2022-08-26T09:47:38.212Z,55.25
2022-08-26T09:50:10.048Z,56.04
2022-08-26T09:52:40.310Z,55.38
2022-08-26T09:55:23.618Z,53.71
2022-08-26T09:57:55.634Z,54.44
2022-08-26T10:00:38.722Z,55.22
2022-08-26T10:03:24.774Z,56.17
2022-08-26T10:06:01.051Z,54.80
2022-08-26T10:08:32.057Z,55.71
2022-08-26T10:11:04.472Z,53.99
2022-08-26T10:13:31.297Z,54.43
2022-08-26T10:16:28.366Z,53.87
2022-08-26T10:19:06.443Z,53.73
2022-08-26T10:21:59.493Z,53.79
2022-08-26T10:24:37.739Z,50.94
2022-08-26T10:27:27.092Z,52.68
2022-08-26T10:30:05.120Z,51.40
2022-08-26T10:32:42.829Z,52.44
2022-08-26T10:35:14.387Z,52.10
2022-08-26T10:37:50.210Z,51.17
2022-08-26T10:40:51.410Z,52.33
2022-08-26T10:43:31.239Z,51.38
2022-08-26T10:46:06.894Z,51.05
2022-08-26T10:48:59.973Z,52.50
2022-08-26T10:51:38.480Z,50.47
2022-08-26T10:54:27.887Z,51.20
2022-08-26T10:57:45.490Z,49.67
2022-08-26T11:01:10.127Z,50.79
2022-08-26T11:03:49.516Z,50.32
2022-08-26T11:06:19.832Z,50.36
2022-08-26T11:09:10.072Z,49.77
2022-08-26T11:11:39.938Z,50.03
2022-08-26T11:14:09.917Z,48.41
2022-08-26T11:16:49.145Z,49.72
2022-08-26T11:19:59.327Z,48.64
2022-08-26T11:22:31.188Z,50.54
2022-08-26T11:24:58.023Z,51.09
2022-08-26T11:27:36.779Z,50.24
2022-08-26T11:30:38.280Z,49.34
2022-08-26T11:33:08.219Z,48.60
2022-08-26T11:35:37.288Z,48.25
2022-08-26T11:38:27.719Z,48.01
2022-08-26T11:41:09.597Z,48.06
2022-08-26T11:43:39.781Z,49.33
2022-08-26T11:46:11.124Z,47.13
2022-08-26T11:48:42.962Z,48.03
2022-08-26T11:51:23.450Z,48.05
2022-08-26T11:53:51.812Z,48.90
2022-08-26T11:56:33.145Z,50.30
2022-08-26T11:59:03.862Z,48.13
2022-08-26T12:01:41.729Z,47.44
2022-08-26T12:04:18.091Z,46.43
2022-08-26T12:06:51.191Z,45.96
2022-08-26T12:09:31.578Z,45.51
2022-08-26T12:12:18.439Z,47.76
2022-08-26T12:14:46.291Z,47.80
2022-08-26T12:17:27.246Z,48.24
2022-08-26T12:19:54.190Z,47.30
2022-08-26T12:22:31.579Z,47.10
2022-08-26T12:25:08.452Z,46.26
2022-08-26T12:27:44.419Z,47.09
2022-08-26T12:30:15.783Z,48.06
2022-08-26T12:33:22.168Z,47.25
2022-08-26T12:35:56.212Z,44.50
2022-08-26T12:38:25.699Z,44.39
2022-08-26T12:40:53.647Z,43.29
2022-08-26T12:43:45.360Z,44.76
2022-08-26T12:46:18.145Z,46.50
2022-08-26T12:48:49.244Z,48.04
2022-08-26T12:51:35.363Z,48.42
2022-08-26T12:54:06.648Z,48.73
2022-08-26T12:56:39.785Z,48.61
2022-08-26T12:59:19.828Z,49.44
2022-08-26T13:01:49.535Z,48.91
2022-08-26T13:04:37.997Z,47.70
2022-08-26T13:07:26.717Z,49.10
2022-08-26T13:09:57.131Z,46.65
2022-08-26T13:12:40.740Z,46.16
2022-08-26T13:15:08.568Z,45.84
2022-08-26T13:17:36.023Z,46.83
2022-08-26T13:20:04.556Z,46.65
2022-08-26T13:22:32.092Z,46.44
2022-08-26T13:24:59.137Z,47.14
2022-08-26T13:27:27.569Z,47.90
2022-08-26T13:29:55.450Z,47.95
2022-08-26T13:32:27.234Z,48.15
2022-08-26T13:34:56.923Z,49.64
2022-08-26T13:37:35.270Z,48.92
2022-08-26T13:40:07.570Z,50.16
2022-08-26T13:42:34.794Z,49.33
2022-08-26T13:45:02.901Z,48.72
2022-08-26T13:47:30.666Z,49.05
2022-08-26T13:49:57.743Z,48.16
2022-08-26T13:52:30.949Z,47.45
2022-08-26T13:55:01.980Z,47.53
2022-08-26T13:57:30.266Z,47.25
2022-08-26T13:59:59.131Z,51.21
2022-08-26T14:02:27.631Z,51.53
2022-08-26T14:04:55.306Z,52.66
2022-08-26T14:07:22.979Z,52.55
2022-08-26T14:09:49.967Z,53.39
2022-08-26T14:12:17.291Z,54.01
2022-08-26T14:14:44.245Z,55.41
2022-08-26T14:17:20.643Z,55.77
2022-08-26T14:19:50.255Z,55.08
2022-08-26T14:22:20.371Z,54.10
2022-08-26T14:24:48.450Z,52.75
2022-08-26T14:27:15.483Z,52.88
2022-08-26T14:29:42.678Z,52.84
2022-08-26T14:32:21.372Z,52.73
2022-08-26T14:34:49.658Z,54.52
2022-08-26T14:37:17.759Z,53.06
2022-08-26T14:39:46.132Z,51.70
2022-08-26T14:42:16.729Z,52.16
2022-08-26T14:44:46.388Z,51.91
2022-08-26T14:47:13.466Z,52.19
2022-08-26T14:49:40.504Z,52.96
2022-08-26T14:52:07.410Z,52.21
2022-08-26T14:54:34.376Z,53.80
2022-08-26T14:57:05.548Z,54.86
2022-08-26T14:59:36.652Z,55.28
2022-08-26T15:02:05.989Z,54.69
2022-08-26T15:04:33.238Z,54.63
2022-08-26T15:07:01.120Z,54.50
2022-08-26T15:09:30.142Z,54.41
2022-08-26T15:11:57.307Z,54.07
2022-08-26T15:14:26.074Z,53.95
2022-08-26T15:16:56.963Z,54.54
2022-08-26T15:19:27.781Z,55.11
2022-08-26T15:21:54.794Z,56.26
2022-08-26T15:24:25.910Z,56.77
2022-08-26T15:26:53.671Z,57.03
2022-08-26T15:29:22.752Z,57.02
2022-08-26T15:31:50.428Z,57.47
2022-08-26T15:34:18.290Z,56.88
2022-08-26T15:36:47.194Z,56.60
2022-08-26T15:39:16.638Z,56.43
2022-08-26T15:41:44.027Z,56.82
2022-08-26T15:44:12.811Z,56.21
2022-08-26T15:46:40.792Z,56.18
2022-08-26T15:49:08.004Z,56.74
2022-08-26T15:51:45.915Z,57.34
2022-08-26T15:54:14.537Z,57.06
2022-08-26T15:56:41.573Z,57.74
2022-08-26T15:59:11.579Z,58.03
2022-08-26T16:01:39.546Z,57.99
2022-08-26T16:04:07.346Z,58.49
2022-08-26T16:06:38.125Z,58.74
2022-08-26T16:09:06.689Z,58.54
2022-08-26T16:11:35.971Z,58.71
2022-08-26T16:14:04.862Z,58.62
2022-08-26T16:16:32.278Z,58.99
2022-08-26T16:19:00.546Z,58.90
2022-08-26T16:21:30.674Z,58.96
2022-08-26T16:23:58.626Z,58.89
2022-08-26T16:26:32.388Z,59.15
2022-08-26T16:29:02.356Z,59.56
2022-08-26T16:31:29.455Z,60.17
2022-08-26T16:33:56.538Z,60.78
2022-08-26T16:36:23.537Z,60.82
2022-08-26T16:38:55.256Z,62.12
2022-08-26T16:41:25.964Z,61.53
2022-08-26T16:43:53.568Z,61.61
2022-08-26T16:46:23.680Z,62.51
2022-08-26T16:48:51.023Z,63.08
2022-08-26T16:51:22.990Z,63.64
2022-08-26T16:53:51.508Z,64.07
2022-08-26T16:56:34.077Z,64.48
2022-08-26T16:59:06.843Z,65.30
2022-08-26T17:01:34.003Z,66.22
2022-08-26T17:04:01.234Z,67.71
2022-08-26T17:06:28.505Z,67.52
2022-08-26T17:08:55.539Z,68.46
2022-08-26T17:11:22.542Z,69.03
2022-08-26T17:13:49.505Z,68.46
2022-08-26T17:16:16.728Z,68.98
2022-08-26T17:18:44.122Z,67.86
2022-08-26T17:21:13.500Z,68.12
2022-08-26T17:23:42.546Z,67.97
2022-08-26T17:26:12.286Z,68.14
2022-08-26T17:28:39.813Z,68.96
2022-08-26T17:31:09.359Z,68.67
2022-08-26T17:33:36.416Z,68.34
2022-08-26T17:36:07.733Z,68.66
2022-08-26T17:38:36.795Z,66.99
2022-08-26T17:41:09.039Z,67.03
2022-08-26T17:43:36.910Z,69.38
2022-08-26T17:46:07.714Z,68.39
2022-08-26T17:48:36.431Z,67.59
2022-08-26T17:51:09.626Z,67.40
2022-08-26T17:53:37.458Z,68.01
2022-08-26T17:56:15.635Z,68.93
2022-08-26T17:58:47.960Z,69.81
2022-08-26T18:01:20.845Z,70.02
2022-08-26T18:03:49.011Z,70.05
2022-08-26T18:06:16.355Z,70.68
2022-08-26T18:08:43.987Z,72.33
2022-08-26T18:11:17.610Z,72.47
2022-08-26T18:13:47.560Z,71.03
2022-08-26T18:16:17.250Z,71.08
2022-08-26T18:18:44.655Z,71.00
2022-08-26T18:21:18.044Z,70.09
2022-08-26T18:23:47.025Z,70.27
2022-08-26T18:26:23.907Z,71.40
2022-08-26T18:28:51.488Z,71.09
2022-08-26T18:31:18.619Z,72.01
2022-08-26T18:33:46.743Z,71.58
2022-08-26T18:36:28.418Z,71.99
2022-08-26T18:38:57.402Z,72.36
2022-08-26T18:41:29.425Z,71.43
2022-08-26T18:43:57.451Z,72.59
2022-08-26T18:46:26.931Z,72.54
2022-08-26T18:48:55.907Z,71.93
2022-08-26T18:51:29.627Z,72.05
2022-08-26T18:53:57.339Z,71.70
2022-08-26T18:56:24.775Z,71.59
2022-08-26T18:58:51.816Z,72.85
2022-08-26T19:01:23.253Z,73.06
2022-08-26T19:03:52.510Z,73.86
2022-08-26T19:06:23.285Z,74.21
2022-08-26T19:08:50.773Z,75.34
2022-08-26T19:11:32.154Z,76.36
2022-08-26T19:14:01.458Z,76.40
2022-08-26T19:16:30.449Z,76.17
2022-08-26T19:18:58.885Z,76.80
2022-08-26T19:21:26.192Z,76.71
2022-08-26T19:23:58.306Z,77.76
2022-08-26T19:26:27.038Z,77.85
2022-08-26T19:28:54.353Z,78.48
2022-08-26T19:31:22.338Z,78.17
2022-08-26T19:33:49.456Z,77.83
2022-08-26T19:36:22.468Z,78.09
2022-08-26T19:38:50.515Z,77.91
2022-08-26T19:41:25.469Z,77.41
2022-08-26T19:44:10.994Z,77.28
2022-08-26T19:49:10.759Z,76.69
2022-08-26T19:51:37.792Z,76.62
2022-08-26T19:54:05.170Z,76.79
2022-08-26T19:56:32.170Z,76.46
2022-08-26T19:58:59.426Z,76.67
2022-08-26T20:01:26.706Z,77.14
2022-08-26T20:03:53.730Z,78.00
2022-08-26T20:06:21.316Z,78.31
2022-08-26T20:08:50.772Z,79.17
2022-08-26T20:11:19.246Z,79.27
2022-08-26T20:13:48.238Z,79.47
2022-08-26T20:16:16.300Z,79.84
2022-08-26T20:19:03.644Z,79.99
2022-08-26T20:21:35.918Z,80.41
2022-08-26T20:24:11.029Z,80.20
2022-08-26T20:26:40.975Z,81.22
2022-08-26T20:29:10.320Z,81.36
2022-08-26T20:31:38.115Z,82.22
2022-08-26T20:34:06.213Z,81.92
2022-08-26T20:36:34.057Z,80.95
2022-08-26T20:39:01.300Z,80.21
2022-08-26T20:41:28.588Z,80.60
2022-08-26T20:43:56.610Z,81.33
2022-08-26T20:46:25.293Z,82.17
2022-08-26T20:48:53.897Z,82.23
2022-08-26T20:51:23.514Z,81.85
2022-08-26T20:53:51.183Z,81.04
2022-08-26T20:56:26.263Z,80.69
2022-08-26T20:58:58.688Z,79.54
2022-08-26T21:01:33.663Z,79.20
2022-08-26T21:04:04.713Z,79.24
2022-08-26T21:06:35.267Z,80.53
2022-08-26T21:09:06.824Z,82.38
2022-08-26T21:11:35.978Z,82.45
2022-08-26T21:14:07.081Z,81.98
2022-08-26T21:16:46.488Z,81.83
2022-08-26T21:19:17.985Z,80.79
2022-08-26T21:21:47.098Z,81.04
2022-08-26T21:24:14.447Z,80.32
2022-08-26T21:26:42.342Z,80.75
2022-08-26T21:29:09.921Z,81.53
2022-08-26T21:31:42.266Z,82.65
2022-08-26T21:34:12.191Z,82.84
2022-08-26T21:36:39.420Z,82.78
2022-08-26T21:39:11.258Z,82.27
2022-08-26T21:41:40.131Z,85.81
2022-08-26T21:44:07.640Z,83.73
2022-08-26T21:46:37.145Z,85.16
2022-08-26T21:49:08.011Z,87.11
2022-08-26T21:51:43.512Z,91.86
2022-08-26T21:54:12.701Z,96.60
2022-08-26T21:56:46.027Z,99.93
2022-08-26T21:59:17.523Z,100.00
2022-08-26T22:01:46.083Z,100.00
2022-08-26T22:04:13.270Z,100.00
2022-08-26T22:06:45.776Z,100.00
2022-08-26T22:09:15.850Z,100.00
2022-08-26T22:11:43.488Z,100.00
2022-08-26T22:14:11.158Z,100.00
2022-08-26T22:16:38.626Z,100.00
2022-08-26T22:19:05.990Z,100.00
2022-08-26T22:21:34.010Z,100.00
2022-08-26T22:24:01.697Z,100.00
2022-08-26T22:26:32.264Z,100.00
2022-08-26T22:29:01.294Z,100.00
2022-08-26T22:31:38.474Z,100.00
2022-08-26T22:34:12.727Z,100.00
2022-08-26T22:36:44.948Z,100.00
2022-08-26T22:39:19.475Z,100.00
2022-08-26T22:41:48.577Z,100.00
2022-08-26T22:44:17.561Z,100.00
2022-08-26T22:46:45.107Z,100.00
2022-08-26T22:49:16.489Z,100.00
2022-08-26T22:51:45.506Z,100.00
2022-08-26T22:54:13.716Z,100.00
2022-08-26T22:56:41.289Z,100.00
2022-08-26T22:59:11.002Z,100.00
2022-08-26T23:01:43.982Z,100.00
2022-08-26T23:04:12.066Z,100.00
2022-08-26T23:06:43.240Z,100.00
2022-08-26T23:09:17.835Z,100.00
2022-08-26T23:11:46.720Z,100.00
2022-08-26T23:14:13.982Z,100.00
2022-08-26T23:16:41.799Z,100.00
2022-08-26T23:19:12.082Z,100.00
2022-08-26T23:21:39.838Z,100.00
2022-08-26T23:24:08.558Z,100.00
2022-08-26T23:26:36.460Z,100.00
2022-08-26T23:29:06.268Z,100.00
2022-08-26T23:31:33.915Z,100.00
2022-08-26T23:34:19.175Z,100.00
2022-08-26T23:36:46.993Z,100.00
2022-08-26T23:39:14.922Z,100.00
2022-08-26T23:41:42.481Z,100.00
2022-08-26T23:44:09.563Z,100.00
2022-08-26T23:46:36.606Z,100.00
2022-08-26T23:49:04.180Z,100.00
2022-08-26T23:51:50.108Z,100.00
2022-08-26T23:54:17.375Z,100.00
2022-08-26T23:56:44.809Z,100.00
2022-08-26T23:59:12.180Z,100.00
